createdAt,value
2018-11-05T00:00:38.230Z,7.90
2018-11-05T00:03:09.529Z,7.90
2018-11-05T00:05:40.263Z,7.90
2018-11-05T00:08:11.060Z,7.90
2018-11-05T00:10:41.772Z,7.90
2018-11-05T00:13:12.525Z,7.90
2018-11-05T00:15:43.299Z,7.90
2018-11-05T00:18:14.060Z,7.90
2018-11-05T00:20:44.720Z,7.90
2018-11-05T00:23:15.651Z,7.90
2018-11-05T00:25:46.346Z,7.90
2018-11-05T00:28:17.035Z,7.90
2018-11-05T00:30:47.785Z,7.90
2018-11-05T00:33:18.599Z,7.90
2018-11-05T00:35:49.305Z,7.90
2018-11-05T00:38:20.073Z,7.90
2018-11-05T00:40:50.740Z,8.00
2018-11-05T00:43:21.644Z,8.00
2018-11-05T00:45:52.561Z,8.00
2018-11-05T00:48:23.439Z,8.00
2018-11-05T00:50:54.192Z,8.00
2018-11-05T00:53:24.981Z,8.00
2018-11-05T00:55:55.703Z,7.90
2018-11-05T00:58:26.486Z,7.90
2018-11-05T01:00:57.165Z,7.90
2018-11-05T01:03:34.432Z,7.80
2018-11-05T01:06:08.047Z,7.80
2018-11-05T01:08:38.892Z,7.80
2018-11-05T01:11:09.620Z,7.70
2018-11-05T01:13:40.296Z,7.70
2018-11-05T01:16:10.974Z,7.70
2018-11-05T01:18:42.554Z,7.70
2018-11-05T01:21:13.355Z,7.60
2018-11-05T01:23:44.058Z,7.60
2018-11-05T01:26:14.781Z,7.60
2018-11-05T01:28:45.519Z,7.60
2018-11-05T01:31:16.229Z,7.60
2018-11-05T01:33:46.941Z,7.60
2018-11-05T01:36:17.570Z,7.60
2018-11-05T01:38:48.272Z,7.50
2018-11-05T01:41:18.909Z,7.50
2018-11-05T01:43:49.712Z,7.50
2018-11-05T01:46:20.391Z,7.50
2018-11-05T01:48:51.156Z,7.50
2018-11-05T01:51:21.952Z,7.40
2018-11-05T01:53:52.739Z,7.40
2018-11-05T01:56:23.454Z,7.40
2018-11-05T01:58:54.408Z,7.40
2018-11-05T02:01:25.118Z,7.40
2018-11-05T02:03:55.974Z,7.40
2018-11-05T02:06:26.737Z,7.50
2018-11-05T02:08:57.587Z,7.40
2018-11-05T02:11:28.287Z,7.40
2018-11-05T02:13:59.086Z,7.40
2018-11-05T02:16:29.825Z,7.40
2018-11-05T02:19:00.517Z,7.50
2018-11-05T02:21:31.309Z,7.50
2018-11-05T02:24:02.091Z,7.50
2018-11-05T02:26:32.819Z,7.50
2018-11-05T02:29:03.631Z,7.50
2018-11-05T02:31:34.275Z,7.50
2018-11-05T02:34:05.098Z,7.50
2018-11-05T02:36:35.846Z,7.50
2018-11-05T02:39:09.803Z,7.50
2018-11-05T02:41:40.498Z,7.50
2018-11-05T02:44:11.158Z,7.50
2018-11-05T02:46:41.981Z,7.50
2018-11-05T02:49:12.654Z,7.40
2018-11-05T02:51:43.570Z,7.40
2018-11-05T02:54:14.414Z,7.40
2018-11-05T02:56:45.114Z,7.40
2018-11-05T02:59:15.882Z,7.40
2018-11-05T03:01:46.610Z,7.30
2018-11-05T03:04:17.352Z,7.40
2018-11-05T03:06:48.097Z,7.30
2018-11-05T03:09:18.822Z,7.30
2018-11-05T03:11:49.521Z,7.30
2018-11-05T03:14:20.207Z,7.30
2018-11-05T03:16:57.383Z,7.30
2018-11-05T03:19:28.102Z,7.40
2018-11-05T03:22:05.339Z,7.40
2018-11-05T03:24:36.113Z,7.30
2018-11-05T03:27:07.334Z,7.30
2018-11-05T03:29:38.128Z,7.30
2018-11-05T03:32:09.021Z,7.30
2018-11-05T03:34:39.863Z,7.30
2018-11-05T03:37:10.589Z,7.30
2018-11-05T03:39:41.347Z,7.30
2018-11-05T03:42:12.058Z,7.30
2018-11-05T03:44:42.766Z,7.20
2018-11-05T03:47:13.547Z,7.30
2018-11-05T03:49:44.299Z,7.20
2018-11-05T03:52:14.965Z,7.20
2018-11-05T03:54:45.586Z,7.20
2018-11-05T03:57:22.766Z,7.20
2018-11-05T03:59:56.385Z,7.20
2018-11-05T04:02:27.043Z,7.20
2018-11-05T04:04:57.778Z,7.20
2018-11-05T04:07:28.492Z,7.20
2018-11-05T04:09:59.145Z,7.20
2018-11-05T04:12:32.943Z,7.20
2018-11-05T04:15:10.722Z,7.20
2018-11-05T04:17:41.494Z,7.20
2018-11-05T04:20:14.315Z,7.20
2018-11-05T04:22:45.821Z,7.20
2018-11-05T04:25:16.572Z,7.20
2018-11-05T04:27:47.369Z,7.20
2018-11-05T04:30:18.187Z,7.20
2018-11-05T04:32:49.116Z,7.20
2018-11-05T04:35:19.872Z,7.20
2018-11-05T04:37:50.620Z,7.20
2018-11-05T04:40:21.454Z,7.20
2018-11-05T04:42:52.282Z,7.20
2018-11-05T04:45:23.042Z,7.30
2018-11-05T04:47:53.782Z,7.30
2018-11-05T04:50:25.328Z,7.30
2018-11-05T04:52:56.517Z,7.30
2018-11-05T04:55:27.218Z,7.30
2018-11-05T04:57:58.003Z,7.30
2018-11-05T05:00:28.811Z,7.30
2018-11-05T05:02:59.622Z,7.30
2018-11-05T05:05:30.379Z,7.30
2018-11-05T05:08:01.083Z,7.30
2018-11-05T05:10:31.771Z,7.30
2018-11-05T05:13:02.618Z,7.30
2018-11-05T05:15:33.422Z,7.30
2018-11-05T05:18:04.639Z,7.30
2018-11-05T05:20:35.347Z,7.30
2018-11-05T05:23:06.451Z,7.30
2018-11-05T05:25:36.957Z,7.30
2018-11-05T05:28:08.282Z,7.30
2018-11-05T05:30:39.137Z,7.30
2018-11-05T05:33:10.079Z,7.30
2018-11-05T05:35:40.772Z,7.30
2018-11-05T05:38:11.660Z,7.20
2018-11-05T05:40:42.482Z,7.20
2018-11-05T05:43:13.199Z,7.20
2018-11-05T05:45:43.829Z,7.20
2018-11-05T05:48:14.530Z,7.20
2018-11-05T05:50:45.286Z,7.10
2018-11-05T05:53:16.502Z,7.10
2018-11-05T05:55:47.159Z,7.10
2018-11-05T05:58:17.925Z,7.10
2018-11-05T06:00:48.566Z,7.10
2018-11-05T06:03:19.339Z,7.00
2018-11-05T06:05:50.075Z,7.10
2018-11-05T06:08:21.112Z,7.00
2018-11-05T06:10:52.044Z,7.00
2018-11-05T06:13:23.290Z,7.00
2018-11-05T06:15:54.256Z,7.00
2018-11-05T06:18:25.104Z,7.00
2018-11-05T06:20:56.025Z,7.00
2018-11-05T06:23:27.078Z,7.00
2018-11-05T06:25:57.808Z,7.00
2018-11-05T06:28:28.813Z,7.00
2018-11-05T06:31:00.535Z,7.00
2018-11-05T06:33:31.807Z,7.00
2018-11-05T06:36:02.764Z,6.90
2018-11-05T06:38:33.631Z,7.00
2018-11-05T06:41:04.508Z,6.90
2018-11-05T06:43:35.261Z,6.90
2018-11-05T06:46:06.281Z,6.90
2018-11-05T06:48:37.529Z,6.90
2018-11-05T06:51:08.311Z,6.90
2018-11-05T06:53:39.171Z,6.80
2018-11-05T06:56:09.919Z,6.80
2018-11-05T06:58:40.764Z,6.80
2018-11-05T07:01:11.718Z,6.80
2018-11-05T07:03:42.721Z,6.80
2018-11-05T07:06:13.631Z,6.80
2018-11-05T07:08:44.519Z,6.80
2018-11-05T07:11:15.435Z,6.80
2018-11-05T07:13:46.228Z,6.80
2018-11-05T07:16:17.159Z,6.80
2018-11-05T07:18:48.180Z,6.80
2018-11-05T07:21:19.148Z,6.80
2018-11-05T07:23:50.047Z,6.80
2018-11-05T07:26:20.870Z,6.80
2018-11-05T07:28:51.788Z,6.80
2018-11-05T07:31:22.635Z,6.80
2018-11-05T07:33:53.732Z,6.80
2018-11-05T07:36:24.538Z,6.90
2018-11-05T07:38:55.263Z,6.90
2018-11-05T07:41:26.140Z,6.90
2018-11-05T07:43:56.943Z,6.90
2018-11-05T07:46:27.711Z,6.90
2018-11-05T07:48:58.650Z,6.90
2018-11-05T07:51:29.491Z,7.00
2018-11-05T07:54:00.858Z,7.00
2018-11-05T07:56:31.746Z,7.00
2018-11-05T07:59:02.604Z,7.00
2018-11-05T08:01:33.710Z,7.00
2018-11-05T08:04:04.542Z,7.00
2018-11-05T08:06:35.373Z,7.10
2018-11-05T08:09:09.110Z,7.10
2018-11-05T08:11:40.263Z,7.10
2018-11-05T08:14:11.121Z,7.20
2018-11-05T08:16:41.896Z,7.20
2018-11-05T08:19:19.253Z,7.20
2018-11-05T08:21:50.053Z,7.20
2018-11-05T08:24:20.945Z,7.20
2018-11-05T08:26:51.699Z,7.30
2018-11-05T08:29:22.905Z,7.30
2018-11-05T08:31:53.761Z,7.30
2018-11-05T08:34:24.706Z,7.30
2018-11-05T08:36:55.739Z,7.30
2018-11-05T08:39:26.791Z,7.40
2018-11-05T08:41:57.606Z,7.40
2018-11-05T08:44:28.405Z,7.50
2018-11-05T08:46:59.467Z,7.50
2018-11-05T08:49:30.421Z,7.60
2018-11-05T08:52:01.242Z,7.60
2018-11-05T08:54:32.135Z,7.70
2018-11-05T08:57:02.983Z,7.70
2018-11-05T08:59:33.888Z,7.70
2018-11-05T09:02:04.739Z,7.80
2018-11-05T09:04:35.644Z,7.80
2018-11-05T09:07:06.866Z,7.90
2018-11-05T09:09:37.706Z,7.90
2018-11-05T09:12:08.708Z,8.00
2018-11-05T09:14:39.595Z,8.00
2018-11-05T09:17:10.441Z,8.00
2018-11-05T09:19:41.311Z,8.00
2018-11-05T09:22:12.295Z,8.10
2018-11-05T09:24:43.247Z,8.20
2018-11-05T09:27:14.004Z,8.20
2018-11-05T09:29:45.940Z,8.30
2018-11-05T09:32:16.900Z,8.30
2018-11-05T09:34:47.818Z,8.40
2018-11-05T09:37:18.668Z,8.50
2018-11-05T09:39:49.706Z,8.60
2018-11-05T09:42:20.722Z,8.70
2018-11-05T09:44:51.736Z,8.90
2018-11-05T09:47:22.586Z,9.00
2018-11-05T09:49:59.930Z,9.10
2018-11-05T09:52:30.835Z,9.20
2018-11-05T09:55:01.736Z,9.30
2018-11-05T09:57:32.691Z,9.40
2018-11-05T10:00:03.767Z,9.40
2018-11-05T10:02:39.652Z,9.50
2018-11-05T10:05:11.035Z,9.60
2018-11-05T10:07:41.854Z,9.70
2018-11-05T10:10:13.788Z,9.80
2018-11-05T10:12:44.739Z,9.80
2018-11-05T10:15:17.734Z,9.90
2018-11-05T10:17:48.710Z,10.00
2018-11-05T10:20:20.783Z,10.10
2018-11-05T10:22:51.647Z,10.30
2018-11-05T10:25:22.887Z,10.40
2018-11-05T10:27:54.084Z,10.60
2018-11-05T10:30:26.281Z,10.70
2018-11-05T10:32:57.109Z,10.80
2018-11-05T10:35:32.910Z,10.90
2018-11-05T10:38:03.760Z,11.00
2018-11-05T10:40:35.815Z,11.10
2018-11-05T10:43:07.373Z,11.30
2018-11-05T10:45:38.362Z,11.40
2018-11-05T10:48:09.226Z,11.50
2018-11-05T10:50:40.197Z,11.60
2018-11-05T10:53:11.144Z,11.70
2018-11-05T10:55:42.259Z,11.80
2018-11-05T10:58:13.385Z,12.00
2018-11-05T11:00:49.496Z,12.10
2018-11-05T11:03:21.208Z,12.20
2018-11-05T11:05:52.207Z,12.20
2018-11-05T11:08:23.146Z,12.30
2018-11-05T11:10:54.001Z,12.40
2018-11-05T11:13:24.824Z,12.40
2018-11-05T11:15:55.732Z,12.40
2018-11-05T11:18:29.416Z,12.50
2018-11-05T11:21:00.202Z,12.60
2018-11-05T11:23:30.959Z,12.70
2018-11-05T11:26:01.816Z,12.80
2018-11-05T11:28:32.661Z,12.90
2018-11-05T11:31:03.507Z,13.00
2018-11-05T11:33:34.310Z,13.00
2018-11-05T11:36:05.102Z,13.10
2018-11-05T11:38:35.811Z,13.20
2018-11-05T11:41:06.600Z,13.20
2018-11-05T11:43:37.297Z,13.30
2018-11-05T11:46:08.216Z,13.30
2018-11-05T11:48:38.998Z,13.40
2018-11-05T11:51:09.738Z,13.40
2018-11-05T11:53:40.474Z,13.50
2018-11-05T11:56:11.252Z,13.60
2018-11-05T11:58:48.561Z,13.60
2018-11-05T12:01:19.682Z,13.60
2018-11-05T12:03:52.851Z,13.60
2018-11-05T12:06:44.022Z,13.60
2018-11-05T12:09:16.475Z,13.60
2018-11-05T12:11:47.437Z,13.60
2018-11-05T12:14:21.580Z,13.60
2018-11-05T12:16:54.829Z,13.60
2018-11-05T12:19:29.518Z,13.60
2018-11-05T12:22:00.679Z,13.60
2018-11-05T12:24:31.682Z,13.60
2018-11-05T12:27:03.521Z,13.70
2018-11-05T12:29:34.431Z,13.60
2018-11-05T12:32:05.509Z,13.60
2018-11-05T12:34:36.590Z,13.50
2018-11-05T12:37:07.975Z,13.50
2018-11-05T12:39:39.342Z,13.40
2018-11-05T12:42:13.410Z,13.40
2018-11-05T12:44:46.308Z,13.40
2018-11-05T12:47:24.941Z,13.30
2018-11-05T12:49:56.273Z,13.20
2018-11-05T12:52:32.962Z,13.20
2018-11-05T12:55:07.296Z,13.10
2018-11-05T12:57:38.323Z,13.10
2018-11-05T13:00:20.226Z,13.00
2018-11-05T13:03:01.139Z,13.00
2018-11-05T13:05:33.186Z,12.90
2018-11-05T13:08:04.387Z,12.90
2018-11-05T13:10:35.969Z,12.90
2018-11-05T13:13:09.458Z,12.90
2018-11-05T13:15:46.130Z,12.90
2018-11-05T13:18:23.647Z,12.90
2018-11-05T13:20:55.569Z,12.90
2018-11-05T13:23:37.369Z,12.80
2018-11-05T13:26:13.711Z,12.80
2018-11-05T13:28:58.052Z,12.80
2018-11-05T13:31:34.737Z,12.80
2018-11-05T13:34:15.720Z,12.80
2018-11-05T13:37:05.873Z,12.80
2018-11-05T13:39:44.283Z,12.90
2018-11-05T13:42:21.221Z,12.90
2018-11-05T13:44:58.290Z,13.00
2018-11-05T13:53:47.782Z,13.10
2018-11-05T13:56:18.401Z,13.10
2018-11-05T13:58:50.046Z,13.00
2018-11-05T14:01:21.346Z,13.00
2018-11-05T14:03:52.478Z,13.00
2018-11-05T14:06:23.155Z,13.00
2018-11-05T14:08:53.836Z,13.00
2018-11-05T14:11:24.440Z,13.10
2018-11-05T14:13:55.255Z,13.10
2018-11-05T14:16:25.867Z,13.10
2018-11-05T15:09:31.631Z,13.20
2018-11-05T15:12:03.519Z,13.20
2018-11-05T15:14:50.637Z,13.20
2018-11-05T15:17:39.321Z,13.20
2018-11-05T15:20:13.698Z,13.20
2018-11-05T15:22:45.930Z,13.10
2018-11-05T15:25:32.575Z,13.10
2018-11-05T15:30:54.571Z,13.10
2018-11-05T15:33:59.772Z,13.00
2018-11-05T15:36:33.570Z,13.00
2018-11-05T15:39:06.570Z,13.00
2018-11-05T15:41:39.609Z,12.90
2018-11-05T15:44:31.527Z,12.90
2018-11-05T15:47:09.894Z,12.90
2018-11-05T15:49:41.180Z,12.80
2018-11-05T15:52:13.349Z,12.80
2018-11-05T15:54:43.788Z,12.70
2018-11-05T15:57:14.590Z,12.70
2018-11-05T15:59:45.598Z,12.60
2018-11-05T16:02:37.269Z,12.60
2018-11-05T16:05:10.290Z,12.50
2018-11-05T16:07:46.626Z,12.40
2018-11-05T16:13:02.190Z,12.30
2018-11-05T16:28:46.351Z,12.20
2018-11-05T16:31:17.350Z,11.90
2018-11-05T16:33:48.524Z,11.90
2018-11-05T16:36:19.440Z,11.80
2018-11-05T16:38:50.456Z,11.80
2018-11-05T16:41:21.452Z,11.70
2018-11-05T16:43:52.406Z,11.70
2018-11-05T16:46:23.540Z,11.60
2018-11-05T16:48:56.609Z,11.60
2018-11-05T16:51:28.770Z,11.70
2018-11-05T16:54:03.610Z,11.60
2018-11-05T16:56:35.496Z,11.60
2018-11-05T16:59:09.250Z,11.60
2018-11-05T17:01:42.049Z,11.60
2018-11-05T17:04:14.010Z,11.60
2018-11-05T17:06:45.083Z,11.50
2018-11-05T17:09:16.167Z,11.50
2018-11-05T17:15:03.305Z,11.50
2018-11-05T17:17:53.829Z,11.40
2018-11-05T17:24:32.770Z,11.40
2018-11-05T17:27:16.822Z,11.40
2018-11-05T17:29:57.427Z,11.40
2018-11-05T17:32:36.146Z,11.30
2018-11-05T17:35:09.147Z,11.30
2018-11-05T17:37:44.890Z,11.30
2018-11-05T17:40:22.029Z,11.30
2018-11-05T17:48:57.385Z,11.30
2018-11-05T17:55:13.930Z,11.10
2018-11-05T19:04:29.684Z,11.10
2018-11-05T19:07:02.663Z,10.40
2018-11-05T19:09:38.231Z,10.30
2018-11-05T19:12:14.278Z,10.30
2018-11-05T19:14:52.848Z,10.30
2018-11-05T19:17:26.409Z,10.30
2018-11-05T19:20:07.884Z,10.30
2018-11-05T19:22:51.181Z,10.30
2018-11-05T19:25:36.430Z,10.30
2018-11-05T19:31:19.884Z,10.30
2018-11-05T19:51:11.609Z,10.10
2018-11-05T19:53:50.170Z,10.10
2018-11-05T19:56:47.623Z,10.10
2018-11-05T20:38:28.079Z,9.90
2018-11-05T20:41:34.617Z,9.80
2018-11-05T21:14:43.063Z,9.70
2018-11-05T21:24:16.710Z,9.50
2018-11-05T21:27:06.350Z,9.40
2018-11-05T21:32:25.834Z,9.50
2018-11-05T21:34:58.543Z,9.50
2018-11-05T21:37:30.777Z,9.50
2018-11-05T21:40:02.912Z,9.50
2018-11-05T21:42:38.896Z,9.50
2018-11-05T21:45:14.256Z,9.50
2018-11-05T21:47:48.968Z,9.50
2018-11-05T21:50:22.150Z,9.50
2018-11-05T21:52:56.722Z,9.50
2018-11-05T21:55:31.645Z,9.50
2018-11-05T21:58:09.729Z,9.50
2018-11-05T22:07:43.457Z,9.50
2018-11-05T22:13:09.151Z,9.50
2018-11-05T22:15:55.958Z,9.50
2018-11-05T22:18:36.090Z,9.50
2018-11-05T22:21:09.838Z,9.40
2018-11-05T22:23:48.790Z,9.40
2018-11-05T22:29:19.110Z,9.40
2018-11-05T22:48:46.231Z,9.30
2018-11-05T22:51:19.689Z,9.30
2018-11-05T22:53:51.256Z,9.30
2018-11-05T22:56:24.629Z,9.30
2018-11-05T22:58:58.426Z,9.30
2018-11-05T23:01:34.849Z,9.30
2018-11-05T23:04:10.030Z,9.30
2018-11-05T23:20:21.549Z,9.30
